createdAt,value
2018-02-27T00:01:58.868Z,25.77
2018-02-27T00:07:00.628Z,27.90
2018-02-27T00:12:01.629Z,19.00
2018-02-27T00:17:02.631Z,16.40
2018-02-27T00:22:04.391Z,19.70
2018-02-27T00:27:05.395Z,28.27
2018-02-27T00:32:06.382Z,16.27
2018-02-27T00:37:07.371Z,17.80
2018-02-27T00:42:08.359Z,22.70
2018-02-27T00:47:10.084Z,19.07
2018-02-27T00:52:11.076Z,19.33
2018-02-27T00:57:12.055Z,18.47
2018-02-27T01:02:13.045Z,26.07
2018-02-27T01:07:14.027Z,27.23
2018-02-27T01:12:15.016Z,26.10
2018-02-27T01:17:16.012Z,20.93
2018-02-27T01:22:17.016Z,21.10
2018-02-27T01:27:18.004Z,25.73
2018-02-27T01:32:18.991Z,21.90
2018-02-27T01:37:19.967Z,28.23
2018-02-27T01:42:20.953Z,22.50
2018-02-27T01:47:21.952Z,20.10
2018-02-27T01:52:30.672Z,23.00
2018-02-27T02:03:00.459Z,19.70
2018-02-27T02:08:01.452Z,33.87
2018-02-27T02:13:02.444Z,19.90
2018-02-27T02:18:03.431Z,18.77
2018-02-27T02:23:04.428Z,18.83
2018-02-27T02:28:05.415Z,23.23
2018-02-27T02:33:06.407Z,14.37
2018-02-27T02:38:07.427Z,21.90
2018-02-27T02:43:08.379Z,17.90
2018-02-27T02:48:09.360Z,7.83
2018-02-27T02:53:10.339Z,15.17
2018-02-27T02:58:11.324Z,17.60
2018-02-27T03:03:13.076Z,19.23
2018-02-27T03:08:14.083Z,16.90
2018-02-27T03:13:15.072Z,15.50
2018-02-27T03:18:23.135Z,21.37
2018-02-27T03:23:24.140Z,18.63
2018-02-27T03:28:25.888Z,9.67
2018-02-27T03:33:26.895Z,14.87
2018-02-27T03:38:27.888Z,11.90
2018-02-27T03:43:28.901Z,10.73
2018-02-27T03:48:29.916Z,18.80
2018-02-27T03:53:30.923Z,17.33
2018-02-27T03:58:31.931Z,14.03
2018-02-27T04:03:33.671Z,13.57
2018-02-27T04:08:34.679Z,10.23
2018-02-27T04:13:35.672Z,17.77
2018-02-27T04:18:36.677Z,15.73
2018-02-27T04:23:38.424Z,13.33
2018-02-27T04:28:39.425Z,11.60
2018-02-27T04:33:40.435Z,16.67
2018-02-27T04:38:42.171Z,7.07
2018-02-27T04:43:43.179Z,4.90
2018-02-27T04:48:44.172Z,12.57
2018-02-27T04:53:45.159Z,12.50
2018-02-27T04:58:46.159Z,11.80
2018-02-27T05:03:47.135Z,11.30
2018-02-27T05:08:48.123Z,8.80
2018-02-27T05:13:49.127Z,6.60
2018-02-27T05:18:50.887Z,12.43
2018-02-27T05:23:51.904Z,7.47
2018-02-27T05:28:53.660Z,3.97
2018-02-27T05:33:54.687Z,10.77
2018-02-27T05:38:56.435Z,6.97
2018-02-27T05:43:57.440Z,9.20
2018-02-27T05:48:58.419Z,6.97
2018-02-27T05:53:59.520Z,11.03
2018-02-27T05:59:00.564Z,8.37
2018-02-27T06:04:01.579Z,8.67
2018-02-27T06:09:02.578Z,21.20
2018-02-27T06:14:04.324Z,15.77
2018-02-27T06:19:05.328Z,18.60
2018-02-27T06:24:06.364Z,12.80
2018-02-27T06:29:08.100Z,11.47
2018-02-27T06:34:09.085Z,8.40
2018-02-27T06:39:10.101Z,4.90
2018-02-27T06:44:11.091Z,10.17
2018-02-27T06:49:12.831Z,5.03
2018-02-27T06:54:13.828Z,9.20
2018-02-27T06:59:14.832Z,17.23
2018-02-27T07:04:15.840Z,8.50
2018-02-27T07:09:17.610Z,13.77
2018-02-27T07:14:18.607Z,10.50
2018-02-27T07:19:19.614Z,10.57
2018-02-27T07:24:21.383Z,5.17
2018-02-27T07:29:22.385Z,12.77
2018-02-27T07:34:24.124Z,17.07
2018-02-27T07:39:25.144Z,7.77
2018-02-27T07:44:26.159Z,10.03
2018-02-27T07:49:27.884Z,11.70
2018-02-27T07:54:28.898Z,10.70
2018-02-27T07:59:29.897Z,9.70
2018-02-27T08:04:30.915Z,9.67
2018-02-27T08:09:32.651Z,9.43
2018-02-27T08:14:33.648Z,9.33
2018-02-27T08:19:34.644Z,17.03
2018-02-27T08:24:35.659Z,12.53
2018-02-27T08:29:37.381Z,11.00
2018-02-27T08:34:38.388Z,8.40
2018-02-27T08:39:39.449Z,12.30
2018-02-27T08:44:40.579Z,17.53
2018-02-27T08:49:41.643Z,9.77
2018-02-27T08:54:42.786Z,11.87
2018-02-27T08:59:44.540Z,16.80
2018-02-27T09:04:45.539Z,13.93
2018-02-27T09:09:46.555Z,15.17
2018-02-27T09:14:47.594Z,14.67
2018-02-27T09:19:48.552Z,17.90
2018-02-27T09:24:49.560Z,13.83
2018-02-27T09:29:50.559Z,16.00
2018-02-27T09:34:51.548Z,20.47
2018-02-27T09:39:53.292Z,12.67
2018-02-27T09:44:54.316Z,20.00
2018-02-27T09:49:55.684Z,20.80
2018-02-27T09:54:56.695Z,19.60
2018-02-27T09:59:57.699Z,19.50
2018-02-27T10:04:59.457Z,19.03
2018-02-27T10:10:00.461Z,15.27
2018-02-27T10:15:01.480Z,21.17
2018-02-27T10:20:02.496Z,18.60
2018-02-27T10:25:03.527Z,20.70
2018-02-27T10:30:05.270Z,15.43
2018-02-27T10:35:06.272Z,14.97
2018-02-27T10:40:07.286Z,21.23
2018-02-27T10:45:09.020Z,17.80
2018-02-27T10:50:09.999Z,19.17
2018-02-27T10:55:10.995Z,9.40
2018-02-27T11:00:12.008Z,16.27
2018-02-27T11:05:13.028Z,14.47
2018-02-27T11:10:14.037Z,18.00
2018-02-27T11:15:15.055Z,12.50
2018-02-27T11:20:16.060Z,11.60
2018-02-27T11:25:17.824Z,15.47
2018-02-27T11:30:18.888Z,19.40
2018-02-27T11:35:20.568Z,14.43
2018-02-27T11:40:21.565Z,16.33
2018-02-27T11:45:22.556Z,8.63
2018-02-27T11:50:23.557Z,13.00
2018-02-27T11:55:24.556Z,16.80
2018-02-27T12:00:25.580Z,18.00
2018-02-27T12:05:26.582Z,20.70
2018-02-27T12:10:27.583Z,12.33
2018-02-27T12:15:28.581Z,13.67
2018-02-27T12:20:29.579Z,10.67
2018-02-27T12:25:30.565Z,13.70
2018-02-27T12:30:31.555Z,18.80
2018-02-27T12:35:32.554Z,11.50
2018-02-27T12:40:34.315Z,19.50
2018-02-27T12:45:35.311Z,19.40
2018-02-27T12:50:36.315Z,12.70
2018-02-27T12:55:38.048Z,15.10
2018-02-27T13:00:39.074Z,17.73
2018-02-27T13:05:40.084Z,19.27
2018-02-27T13:10:41.827Z,16.20
2018-02-27T13:15:42.850Z,15.30
2018-02-27T13:20:43.836Z,19.03
2018-02-27T13:25:44.844Z,8.27
2018-02-27T13:30:45.874Z,10.60
2018-02-27T13:35:46.847Z,11.70
2018-02-27T13:40:47.841Z,17.50
2018-02-27T13:45:48.856Z,17.87
2018-02-27T13:50:50.583Z,15.90
2018-02-27T13:55:51.601Z,21.70
2018-02-27T14:00:52.608Z,15.67
2018-02-27T14:05:53.601Z,17.87
2018-02-27T14:10:55.368Z,20.10
2018-02-27T14:15:56.366Z,15.87
2018-02-27T14:20:57.363Z,15.97
2018-02-27T14:25:59.107Z,15.80
2018-02-27T14:31:00.111Z,32.93
2018-02-27T14:36:01.140Z,24.73
2018-02-27T14:41:02.891Z,8.20
2018-02-27T14:46:03.905Z,15.30
2018-02-27T14:51:04.899Z,18.97
2018-02-27T14:56:06.645Z,19.83
2018-02-27T15:01:07.648Z,19.07
2018-02-27T15:06:08.644Z,12.40
2018-02-27T15:11:09.647Z,17.03
2018-02-27T15:16:11.392Z,18.23
2018-02-27T15:21:12.368Z,19.23
2018-02-27T15:26:13.364Z,19.90
2018-02-27T15:31:14.352Z,17.20
2018-02-27T15:36:15.341Z,21.87
2018-02-27T15:41:16.811Z,6.20
2018-02-27T15:46:17.800Z,16.03
2018-02-27T15:51:18.827Z,16.33
2018-02-27T15:56:20.564Z,18.60
2018-02-27T16:01:21.555Z,20.53
2018-02-27T16:06:22.554Z,19.57
2018-02-27T16:11:23.569Z,19.97
2018-02-27T16:16:25.939Z,15.30
2018-02-27T16:21:26.943Z,14.50
2018-02-27T16:26:27.941Z,13.80
2018-02-27T16:31:28.932Z,16.30
2018-02-27T16:36:29.920Z,14.83
2018-02-27T16:41:31.655Z,16.67
2018-02-27T16:46:32.667Z,15.70
2018-02-27T16:51:33.651Z,15.00
2018-02-27T16:56:34.643Z,11.90
2018-02-27T17:01:35.647Z,19.20
2018-02-27T17:06:36.629Z,16.10
2018-02-27T17:11:37.628Z,14.20
2018-02-27T17:16:39.362Z,15.97
2018-02-27T17:21:40.361Z,18.57
2018-02-27T17:26:41.351Z,14.23
2018-02-27T17:31:42.348Z,30.03
2018-02-27T17:36:43.351Z,15.63
2018-02-27T17:41:45.172Z,14.37
2018-02-27T17:46:46.228Z,15.63
2018-02-27T17:51:47.302Z,18.70
2018-02-27T17:56:48.428Z,31.73
2018-02-27T18:01:49.445Z,16.27
2018-02-27T18:06:50.495Z,21.30
2018-02-27T18:11:51.500Z,16.97
2018-02-27T18:16:52.487Z,18.60
2018-02-27T18:21:53.482Z,20.43
2018-02-27T18:26:54.487Z,23.27
2018-02-27T18:31:55.483Z,16.23
2018-02-27T18:36:57.230Z,19.47
2018-02-27T18:41:58.216Z,17.50
2018-02-27T18:46:59.220Z,30.33
2018-02-27T18:52:00.221Z,41.70
2018-02-27T18:57:02.237Z,16.13
2018-02-27T19:02:03.982Z,23.20
2018-02-27T19:07:04.967Z,14.63
2018-02-27T19:12:05.975Z,30.40
2018-02-27T19:17:06.968Z,43.90
2018-02-27T19:22:07.961Z,22.83
2018-02-27T19:27:09.704Z,32.80
2018-02-27T19:32:10.708Z,21.87
2018-02-27T19:37:11.814Z,38.47
2018-02-27T19:42:12.933Z,30.00
2018-02-27T19:47:13.950Z,24.30
2018-02-27T19:52:15.008Z,36.30
2018-02-27T19:57:16.032Z,29.60
2018-02-27T20:02:17.353Z,27.90
2018-02-27T20:07:18.433Z,43.80
2018-02-27T20:12:19.461Z,57.57
2018-02-27T20:17:20.522Z,54.33
2018-02-27T20:22:27.690Z,55.67
2018-02-27T20:27:28.708Z,39.57
2018-02-27T20:32:29.808Z,41.73
2018-02-27T20:37:31.567Z,36.03
2018-02-27T20:42:32.584Z,33.07
2018-02-27T20:47:33.599Z,44.60
2018-02-27T20:52:34.629Z,28.47
2018-02-27T20:57:35.899Z,70.37
2018-02-27T21:02:36.944Z,37.50
2018-02-27T21:07:38.676Z,50.57
2018-02-27T21:12:39.678Z,45.00
2018-02-27T21:17:41.652Z,31.53
2018-02-27T21:22:43.720Z,39.93
2018-02-27T21:27:45.464Z,31.43
2018-02-27T21:32:46.492Z,36.33
2018-02-27T21:37:48.271Z,31.60
2018-02-27T21:42:49.266Z,26.67
2018-02-27T21:47:50.332Z,26.50
2018-02-27T21:52:51.422Z,26.23
2018-02-27T21:57:52.436Z,22.20
2018-02-27T22:02:54.208Z,32.23
2018-02-27T22:07:55.257Z,21.20
2018-02-27T22:12:56.281Z,26.40
2018-02-27T22:17:57.340Z,27.33
2018-02-27T22:22:58.383Z,21.97
2018-02-27T22:28:00.193Z,22.40
2018-02-27T22:33:01.212Z,21.23
2018-02-27T22:38:02.232Z,24.47
2018-02-27T22:43:03.248Z,20.90
2018-02-27T22:48:04.276Z,21.07
2018-02-27T22:53:05.304Z,20.53
2018-02-27T22:58:07.062Z,18.60
2018-02-27T23:03:08.117Z,29.17
2018-02-27T23:08:09.120Z,23.87
2018-02-27T23:13:10.127Z,22.57
2018-02-27T23:18:11.136Z,27.60
2018-02-27T23:23:12.898Z,33.33
2018-02-27T23:28:15.037Z,21.47
2018-02-27T23:33:16.436Z,25.77
2018-02-27T23:38:18.183Z,25.80
2018-02-27T23:43:19.179Z,22.90
2018-02-27T23:48:20.167Z,30.20
2018-02-27T23:53:21.177Z,20.80
2018-02-27T23:58:22.941Z,31.30
